Time;durP1;ratioP1;P1;durP2;ratioP2;P2;SDS_P1;SDS_P2;PMS_P1;PMS_P2;Temp;Humidity;BMP_temperature;BMP_pressure;BME280_temperature;BME280_humidity;BME280_pressure;Samples;Min_cycle;Max_cycle;Signal;HPM_P1;HPM_P2
2024/03/24 00:00:19;;;;;;;4.50;2.83;;;7.30;91.30;;;;;;10385395;28;20212;-68
2024/03/24 00:05:22;;;;;;;4.20;2.10;;;7.20;91.30;;;;;;10385360;28;20303;-66
2024/03/24 00:10:24;;;;;;;4.20;2.60;;;7.30;91.50;;;;;;10386848;28;20210;-66
2024/03/24 00:15:28;;;;;;;5.80;3.20;;;7.30;91.00;;;;;;10385290;28;20296;-66
2024/03/24 00:20:34;;;;;;;4.63;2.83;;;7.30;91.40;;;;;;10385208;28;20210;-65
2024/03/24 00:25:37;;;;;;;6.40;4.30;;;7.30;91.20;;;;;;10386324;28;20314;-66
2024/03/24 00:30:41;;;;;;;5.10;3.80;;;7.20;91.40;;;;;;10384010;28;20255;-67
2024/03/24 00:35:43;;;;;;;5.20;3.70;;;7.20;91.10;;;;;;10384222;28;20207;-68
2024/03/24 00:40:46;;;;;;;7.43;4.60;;;7.20;91.30;;;;;;10384608;28;20215;-68
2024/03/24 00:45:50;;;;;;;6.43;4.67;;;7.30;91.40;;;;;;10384461;28;20284;-68
2024/03/24 00:50:52;;;;;;;8.37;4.73;;;7.20;91.40;;;;;;10384896;28;20296;-67
2024/03/24 00:55:55;;;;;;;6.93;4.00;;;7.10;91.30;;;;;;10387588;28;20209;-67
2024/03/24 01:00:59;;;;;;;7.40;4.47;;;7.10;91.20;;;;;;10383765;28;20224;-67
2024/03/24 01:06:04;;;;;;;6.53;4.27;;;7.10;91.50;;;;;;10384253;28;21680;-65
2024/03/24 01:11:07;;;;;;;7.50;4.47;;;7.10;91.20;;;;;;10384128;28;20822;-66
2024/03/24 01:16:11;;;;;;;7.37;4.53;;;7.10;91.20;;;;;;10382878;28;20203;-65
2024/03/24 01:21:14;;;;;;;8.90;5.43;;;7.10;91.20;;;;;;10383290;28;22217;-67
2024/03/24 01:26:16;;;;;;;6.80;4.87;;;7.10;91.20;;;;;;10382599;28;20830;-66
2024/03/24 01:31:20;;;;;;;8.50;5.73;;;7.10;91.40;;;;;;10382748;28;20223;-66
2024/03/24 01:36:23;;;;;;;6.50;5.20;;;7.10;91.80;;;;;;10383196;28;20343;-68
2024/03/24 01:41:26;;;;;;;5.47;4.97;;;7.10;91.50;;;;;;10381859;28;20257;-66
2024/03/24 01:46:30;;;;;;;5.93;5.30;;;7.10;91.70;;;;;;10382881;28;21366;-65
2024/03/24 01:51:35;;;;;;;8.80;5.37;;;7.10;91.50;;;;;;10381777;28;20568;-66
2024/03/24 01:56:38;;;;;;;9.70;5.57;;;7.10;91.40;;;;;;10382619;28;20260;-68
2024/03/24 02:01:42;;;;;;;7.93;5.43;;;7.10;91.50;;;;;;10382646;28;20230;-66
2024/03/24 02:06:45;;;;;;;9.17;5.90;;;7.20;91.60;;;;;;10380074;28;20227;-66
2024/03/24 02:11:48;;;;;;;7.27;5.30;;;7.20;91.60;;;;;;10418064;28;20296;-68
2024/03/24 02:16:53;;;;;;;9.07;5.70;;;7.20;91.70;;;;;;10423621;28;20202;-68
2024/03/24 02:21:55;;;;;;;8.53;5.73;;;7.20;91.80;;;;;;10426267;28;20224;-71
2024/03/24 02:26:59;;;;;;;9.83;6.80;;;7.20;91.90;;;;;;10433568;28;20903;-66
2024/03/24 02:32:02;;;;;;;7.77;6.50;;;7.20;92.10;;;;;;10438594;28;20314;-68
2024/03/24 02:37:05;;;;;;;6.07;5.33;;;7.20;91.90;;;;;;10439742;28;20342;-67
2024/03/24 02:42:09;;;;;;;8.03;6.00;;;7.20;92.10;;;;;;10440220;28;20239;-67
2024/03/24 02:47:12;;;;;;;7.13;5.53;;;7.30;92.10;;;;;;10442975;28;20263;-66
2024/03/24 02:52:14;;;;;;;8.10;6.53;;;7.20;92.10;;;;;;10446372;28;20356;-67
2024/03/24 02:57:19;;;;;;;8.17;7.03;;;7.20;92.30;;;;;;10443924;28;20340;-67
2024/03/24 03:02:21;;;;;;;8.67;6.30;;;7.10;92.40;;;;;;10444659;28;20322;-67
2024/03/24 03:07:24;;;;;;;8.97;6.60;;;7.10;92.30;;;;;;10447676;28;20346;-67
2024/03/24 03:12:28;;;;;;;7.97;6.83;;;7.10;92.40;;;;;;10441547;28;21496;-68
2024/03/24 03:17:31;;;;;;;7.40;6.27;;;7.10;92.40;;;;;;10437011;28;20233;-69
2024/03/24 03:22:33;;;;;;;7.33;5.80;;;7.10;92.40;;;;;;10429189;28;20243;-68
2024/03/24 03:27:37;;;;;;;6.77;5.30;;;7.10;92.50;;;;;;10430895;28;20256;-69
2024/03/24 03:32:40;;;;;;;9.23;6.40;;;7.10;92.80;;;;;;10424573;28;20227;-67
2024/03/24 03:37:42;;;;;;;5.33;3.97;;;7.00;92.70;;;;;;10428090;28;20207;-70
2024/03/24 03:42:46;;;;;;;8.27;5.97;;;7.00;92.50;;;;;;10430496;28;21255;-65
2024/03/24 03:47:49;;;;;;;7.03;6.00;;;7.00;92.80;;;;;;10429100;28;20275;-65
2024/03/24 03:52:53;;;;;;;8.10;6.13;;;7.00;92.80;;;;;;10429622;28;20329;-71
2024/03/24 03:57:57;;;;;;;6.43;5.50;;;7.00;92.80;;;;;;10415049;28;20248;-72
2024/03/24 04:02:59;;;;;;;8.50;6.00;;;7.00;92.90;;;;;;10425957;28;20950;-69
2024/03/24 04:08:02;;;;;;;6.53;5.63;;;7.00;93.00;;;;;;10426080;28;20227;-68
2024/03/24 04:13:06;;;;;;;9.57;6.90;;;7.00;93.30;;;;;;10434191;28;20311;-67
2024/03/24 04:18:08;;;;;;;7.27;6.27;;;7.00;93.40;;;;;;10427527;28;20255;-69
2024/03/24 04:23:11;;;;;;;9.23;7.40;;;7.00;93.40;;;;;;10411788;28;20231;-69
2024/03/24 04:28:15;;;;;;;9.80;7.97;;;7.00;93.00;;;;;;10429653;28;20789;-69
2024/03/24 04:33:17;;;;;;;10.67;9.13;;;7.00;93.00;;;;;;10427559;28;20223;-69
2024/03/24 04:38:20;;;;;;;12.60;9.80;;;7.00;93.00;;;;;;10424854;28;20295;-70
2024/03/24 04:43:24;;;;;;;13.73;8.83;;;7.10;93.10;;;;;;10430561;28;20377;-70
2024/03/24 04:48:26;;;;;;;12.30;8.67;;;7.00;93.30;;;;;;10428921;28;20357;-68
2024/03/24 04:53:29;;;;;;;10.60;7.83;;;7.00;93.30;;;;;;10427524;28;20953;-68
2024/03/24 04:58:33;;;;;;;8.87;7.87;;;7.00;93.40;;;;;;10429937;28;20412;-68
2024/03/24 05:03:35;;;;;;;12.43;8.13;;;7.00;93.50;;;;;;10434952;28;20313;-69
2024/03/24 05:08:38;;;;;;;11.40;9.07;;;6.90;93.30;;;;;;10422906;28;20959;-67
2024/03/24 05:13:42;;;;;;;9.17;7.60;;;7.00;93.20;;;;;;10423339;28;21437;-67
2024/03/24 05:18:45;;;;;;;12.37;7.40;;;6.90;93.30;;;;;;10426509;28;20372;-66
2024/03/24 05:23:47;;;;;;;8.77;7.27;;;7.00;93.90;;;;;;10426876;28;20336;-67
2024/03/24 05:28:51;;;;;;;9.90;6.97;;;7.00;94.00;;;;;;10421653;28;20317;-68
2024/03/24 05:33:54;;;;;;;7.60;6.80;;;7.00;93.60;;;;;;10430840;28;20345;-67
2024/03/24 05:38:57;;;;;;;8.30;6.57;;;7.00;93.40;;;;;;10430424;28;20302;-67
2024/03/24 05:44:01;;;;;;;8.87;6.50;;;7.00;93.50;;;;;;10417506;28;20350;-68
2024/03/24 05:49:04;;;;;;;8.50;6.43;;;7.00;93.70;;;;;;10409453;28;20239;-72
2024/03/24 05:54:07;;;;;;;9.30;6.17;;;7.00;93.40;;;;;;10414999;28;21496;-69
2024/03/24 05:59:11;;;;;;;7.50;5.60;;;7.10;93.30;;;;;;10409472;28;21456;-70
2024/03/24 06:04:14;;;;;;;6.70;4.77;;;7.00;93.40;;;;;;10404155;28;20231;-70
2024/03/24 06:09:17;;;;;;;5.27;4.40;;;7.00;93.10;;;;;;10417917;28;20645;-71
2024/03/24 06:14:21;;;;;;;6.27;3.63;;;7.00;93.20;;;;;;10422197;28;20235;-68
2024/03/24 06:19:23;;;;;;;6.90;4.13;;;7.00;93.30;;;;;;10409390;28;20203;-67
2024/03/24 06:24:26;;;;;;;3.97;3.53;;;7.00;93.40;;;;;;10419627;28;20297;-66
2024/03/24 06:29:32;;;;;;;7.50;4.43;;;6.90;93.40;;;;;;10423332;28;20228;-66
2024/03/24 06:34:34;;;;;;;5.80;4.20;;;6.90;93.70;;;;;;10424794;28;20223;-67
2024/03/24 06:39:37;;;;;;;6.40;4.30;;;6.80;93.70;;;;;;10412826;28;20295;-65
2024/03/24 06:44:42;;;;;;;5.67;4.30;;;6.80;94.00;;;;;;10417935;28;20252;-67
2024/03/24 06:49:45;;;;;;;6.03;4.33;;;6.80;94.10;;;;;;10426925;28;20316;-67
2024/03/24 06:54:49;;;;;;;4.07;3.10;;;6.90;94.20;;;;;;10425979;28;20303;-69
2024/03/24 06:59:53;;;;;;;4.13;3.00;;;6.90;93.90;;;;;;10427611;28;20199;-68
2024/03/24 07:04:57;;;;;;;2.73;2.30;;;6.90;93.90;;;;;;10452023;28;20228;-68
2024/03/24 07:09:59;;;;;;;2.93;2.20;;;7.00;93.80;;;;;;10437442;28;20228;-64
2024/03/24 07:15:04;;;;;;;4.67;2.50;;;7.00;93.90;;;;;;10434357;28;20228;-68
2024/03/24 07:20:08;;;;;;;5.70;2.60;;;7.10;93.70;;;;;;10458301;28;20208;-67
2024/03/24 07:25:12;;;;;;;3.63;2.70;;;7.10;93.70;;;;;;10462249;28;20239;-68
2024/03/24 07:30:16;;;;;;;3.97;2.97;;;7.10;93.90;;;;;;10427466;28;20725;-66
2024/03/24 07:35:19;;;;;;;5.37;2.50;;;7.20;93.70;;;;;;10439934;28;20277;-66
2024/03/24 07:40:22;;;;;;;4.07;2.60;;;7.10;93.30;;;;;;10471008;28;20204;-64
2024/03/24 07:45:26;;;;;;;4.67;2.80;;;7.10;93.70;;;;;;10445898;28;20343;-72
2024/03/24 07:50:29;;;;;;;7.30;2.97;;;7.10;93.50;;;;;;10437669;28;20223;-66
2024/03/24 07:55:31;;;;;;;9.43;4.30;;;7.00;93.50;;;;;;10448911;28;20297;-68
2024/03/24 08:00:35;;;;;;;6.27;3.37;;;7.00;93.60;;;;;;10441673;28;20229;-66
2024/03/24 08:05:38;;;;;;;6.30;3.77;;;6.90;93.50;;;;;;10441057;28;20321;-66
2024/03/24 08:10:41;;;;;;;5.20;3.63;;;6.80;93.50;;;;;;10444903;28;20357;-62
2024/03/24 08:15:45;;;;;;;5.60;3.50;;;6.70;93.90;;;;;;10387856;28;20234;-67
2024/03/24 08:20:48;;;;;;;5.10;3.63;;;6.70;93.90;;;;;;10384312;28;20209;-65
2024/03/24 08:25:51;;;;;;;6.10;4.63;;;6.60;93.70;;;;;;10383019;28;21436;-65
2024/03/24 08:30:55;;;;;;;7.97;4.97;;;6.60;93.90;;;;;;10384132;28;20231;-66
2024/03/24 08:35:57;;;;;;;6.07;4.83;;;6.70;94.00;;;;;;10381859;28;20271;-68
2024/03/24 08:41:00;;;;;;;7.60;4.30;;;6.90;94.20;;;;;;10383012;28;20912;-65
2024/03/24 08:46:04;;;;;;;11.13;5.37;;;7.20;94.20;;;;;;10384149;28;20258;-67
2024/03/24 08:51:07;;;;;;;7.93;7.10;;;7.40;94.20;;;;;;10383654;28;20538;-67
2024/03/24 08:56:10;;;;;;;11.83;7.80;;;7.50;94.10;;;;;;10387585;28;20257;-67
2024/03/24 09:01:14;;;;;;;12.00;6.93;;;7.60;94.30;;;;;;10386647;28;20300;-67
2024/03/24 09:06:17;;;;;;;14.37;8.57;;;7.70;94.20;;;;;;10385614;28;20583;-67
2024/03/24 09:11:20;;;;;;;18.30;11.47;;;7.90;94.20;;;;;;10384558;28;20595;-67
2024/03/24 09:16:24;;;;;;;14.53;9.77;;;8.00;94.50;;;;;;10381397;28;20236;-66
2024/03/24 09:21:26;;;;;;;14.07;9.87;;;8.20;94.90;;;;;;10383086;28;20647;-66
2024/03/24 09:26:29;;;;;;;13.83;9.47;;;8.30;94.20;;;;;;10384526;28;20230;-67
2024/03/24 09:31:33;;;;;;;13.03;8.43;;;8.40;94.10;;;;;;10381034;28;20223;-67
2024/03/24 09:36:35;;;;;;;13.88;8.82;;;8.50;94.30;;;;;;10380689;28;20195;-67
2024/03/24 09:41:43;;;;;;;15.98;7.82;;;8.60;94.10;;;;;;10383850;28;20605;-67
2024/03/24 09:46:47;;;;;;;12.97;7.40;;;8.70;94.10;;;;;;10381421;28;20275;-67
2024/03/24 09:51:50;;;;;;;11.45;6.68;;;8.70;93.90;;;;;;10382607;28;20252;-67
2024/03/24 09:56:52;;;;;;;14.47;7.13;;;8.80;94.00;;;;;;10379291;28;20275;-67
2024/03/24 10:01:56;;;;;;;11.43;6.78;;;8.80;93.90;;;;;;10382722;28;20309;-66
2024/03/24 10:06:59;;;;;;;11.13;5.28;;;8.90;93.90;;;;;;10381089;28;20228;-66
2024/03/24 10:12:12;;;;;;;11.65;6.47;;;9.10;93.50;;;;;;10383674;28;20235;-65
2024/03/24 10:17:19;;;;;;;12.32;5.00;;;9.10;93.20;;;;;;10383539;28;20211;-66
2024/03/24 10:22:22;;;;;;;13.90;4.95;;;9.20;93.10;;;;;;10382415;28;20314;-67
2024/03/24 10:27:25;;;;;;;7.17;4.13;;;9.10;92.10;;;;;;10380986;28;20292;-69
2024/03/24 10:32:29;;;;;;;11.82;4.47;;;9.10;91.90;;;;;;10383642;28;20214;-67
2024/03/24 10:37:32;;;;;;;9.98;3.83;;;9.10;92.00;;;;;;10380787;28;20198;-69
2024/03/24 10:42:35;;;;;;;8.30;3.55;;;9.10;91.40;;;;;;10380812;28;20744;-66
2024/03/24 10:47:39;;;;;;;7.18;3.00;;;9.10;90.40;;;;;;10380254;28;20226;-67
2024/03/24 10:52:43;;;;;;;9.47;3.50;;;9.10;90.40;;;;;;10381143;28;20305;-68
2024/03/24 10:57:47;;;;;;;6.95;2.80;;;9.10;90.10;;;;;;10381390;28;21429;-69
2024/03/24 11:02:51;;;;;;;7.78;2.50;;;9.00;90.20;;;;;;10383315;28;20767;-67
2024/03/24 11:07:54;;;;;;;8.15;3.33;;;8.90;90.10;;;;;;10385439;28;20228;-67
2024/03/24 11:12:57;;;;;;;12.67;3.87;;;8.80;90.80;;;;;;10387701;28;20231;-67
2024/03/24 11:18:04;;;;;;;8.97;3.70;;;8.90;91.10;;;;;;10386820;28;21460;-66
2024/03/24 11:23:16;;;;;;;8.00;3.20;;;8.90;91.20;;;;;;10383418;28;21393;-68
2024/03/24 11:28:42;;;;;;;7.57;3.20;;;8.90;90.20;;;;;;10385304;28;21716;-68
2024/03/24 11:33:59;;;;;;;7.40;3.00;;;8.90;90.60;;;;;;10386841;28;20234;-68
2024/03/24 11:39:04;;;;;;;5.83;2.53;;;8.80;90.40;;;;;;10386036;28;20675;-68
2024/03/24 11:44:08;;;;;;;7.00;2.63;;;8.70;90.20;;;;;;10385489;28;20722;-67
2024/03/24 11:49:12;;;;;;;5.37;1.97;;;8.50;91.30;;;;;;10386893;28;20771;-68
2024/03/24 11:54:17;;;;;;;4.07;1.80;;;8.40;91.60;;;;;;10388085;28;20312;-65
2024/03/24 11:59:21;;;;;;;5.37;2.13;;;8.30;91.80;;;;;;10388348;28;20209;-66
2024/03/24 12:04:25;;;;;;;3.92;2.13;;;8.40;92.10;;;;;;10381680;28;20223;-66
2024/03/24 12:09:29;;;;;;;3.17;1.87;;;8.50;92.50;;;;;;10385588;28;20589;-65
2024/03/24 12:14:32;;;;;;;3.60;1.50;;;8.60;92.10;;;;;;10386194;28;20231;-66
2024/03/24 12:19:36;;;;;;;5.40;2.40;;;8.80;92.20;;;;;;10383876;28;20217;-66
2024/03/24 12:24:39;;;;;;;7.13;3.17;;;9.20;92.20;;;;;;10372788;28;21172;-66
2024/03/24 12:29:51;;;;;;;6.72;2.88;;;9.50;91.70;;;;;;10369604;28;20231;-66
2024/03/24 12:34:58;;;;;;;5.28;2.45;;;9.60;91.80;;;;;;10369764;28;20257;-66
2024/03/24 12:40:01;;;;;;;7.50;2.78;;;9.70;91.30;;;;;;10370855;28;20858;-66
2024/03/24 12:45:07;;;;;;;6.00;2.85;;;9.80;91.60;;;;;;10370486;28;20287;-65
2024/03/24 12:50:29;;;;;;;8.93;2.75;;;9.90;91.40;;;;;;10377957;28;20353;-67
2024/03/24 12:55:37;;;;;;;7.38;2.40;;;9.90;90.50;;;;;;10456350;28;20691;-63
2024/03/24 13:00:40;;;;;;;6.35;2.70;;;9.80;90.80;;;;;;10452195;28;20226;-64
2024/03/24 13:05:43;;;;;;;6.65;2.75;;;9.70;90.00;;;;;;10458867;28;20231;-65
2024/03/24 13:10:46;;;;;;;6.95;2.60;;;9.60;90.30;;;;;;10474729;28;20917;-65
2024/03/24 13:15:49;;;;;;;5.93;2.70;;;9.40;90.00;;;;;;10464908;28;20308;-65
2024/03/24 13:20:55;;;;;;;7.90;3.42;;;9.40;90.10;;;;;;10462964;28;20233;-64
2024/03/24 13:25:59;;;;;;;7.78;3.40;;;9.40;89.90;;;;;;10462890;28;20216;-64
2024/03/24 13:31:02;;;;;;;7.28;3.53;;;9.50;90.20;;;;;;10455983;28;20219;-64
2024/03/24 13:36:10;;;;;;;6.70;3.10;;;9.60;89.80;;;;;;10448895;28;20724;-65
2024/03/24 13:41:24;;;;;;;7.38;3.55;;;9.60;90.00;;;;;;10455418;28;20828;-65
2024/03/24 13:46:31;;;;;;;6.15;3.85;;;9.40;89.80;;;;;;10468050;28;20232;-64
2024/03/24 13:51:38;;;;;;;6.60;3.20;;;9.30;90.40;;;;;;10454377;28;20286;-65
2024/03/24 13:56:40;;;;;;;8.80;3.50;;;9.30;90.80;;;;;;10456124;28;20207;-65
2024/03/24 14:01:43;;;;;;;7.57;4.00;;;9.20;91.00;;;;;;10446367;28;20248;-65
2024/03/24 14:06:47;;;;;;;9.65;4.05;;;9.10;91.60;;;;;;10453451;28;20438;-62
2024/03/24 14:11:49;;;;;;;9.13;3.53;;;8.90;92.20;;;;;;10417933;28;20260;-67
2024/03/24 14:16:59;;;;;;;7.70;3.77;;;8.90;92.40;;;;;;10385458;28;20266;-66
2024/03/24 14:22:11;;;;;;;10.32;3.67;;;8.90;92.50;;;;;;10381294;28;20227;-67
2024/03/24 14:27:13;;;;;;;7.03;2.92;;;9.80;92.20;;;;;;10378287;28;20207;-65
2024/03/24 14:32:16;;;;;;;9.52;3.60;;;10.30;90.90;;;;;;10381660;28;20320;-66
2024/03/24 14:37:36;;;;;;;8.98;3.53;;;10.00;90.90;;;;;;10382034;28;20211;-66
2024/03/24 14:42:47;;;;;;;9.33;3.67;;;9.80;91.10;;;;;;10388716;28;21361;-67
2024/03/24 14:48:00;;;;;;;6.67;3.30;;;9.60;91.10;;;;;;10387693;28;20739;-63
2024/03/24 14:53:04;;;;;;;8.75;3.22;;;9.50;91.00;;;;;;10390574;28;20226;-65
2024/03/24 14:58:06;;;;;;;7.77;2.93;;;9.40;91.10;;;;;;10387690;28;20215;-66
2024/03/24 15:03:09;;;;;;;8.43;3.37;;;9.30;91.50;;;;;;10386325;28;20268;-67
2024/03/24 15:08:13;;;;;;;5.50;2.60;;;9.20;91.80;;;;;;10386425;28;20226;-66
2024/03/24 15:13:16;;;;;;;6.40;1.80;;;9.20;91.70;;;;;;10385952;28;20230;-66
2024/03/24 15:18:18;;;;;;;5.63;2.47;;;9.10;91.50;;;;;;10385306;28;20202;-66
2024/03/24 15:23:23;;;;;;;7.77;2.27;;;9.00;91.70;;;;;;10386252;28;20266;-66
2024/03/24 15:28:25;;;;;;;7.87;2.23;;;9.00;91.80;;;;;;10386687;28;20257;-67
2024/03/24 15:33:29;;;;;;;7.33;2.37;;;8.90;92.30;;;;;;10387691;28;21437;-67
2024/03/24 15:38:33;;;;;;;6.77;2.03;;;8.80;92.20;;;;;;10389735;28;20203;-65
2024/03/24 15:43:36;;;;;;;5.07;1.93;;;8.80;92.40;;;;;;10406392;28;21763;-66
2024/03/24 15:48:38;;;;;;;8.07;2.40;;;9.10;92.30;;;;;;10387448;28;20296;-65
2024/03/24 15:53:42;;;;;;;6.35;2.28;;;9.30;92.00;;;;;;10390544;28;21700;-66
2024/03/24 15:59:11;;;;;;;5.93;2.20;;;9.30;91.60;;;;;;10390509;28;20203;-66
2024/03/24 16:04:14;;;;;;;5.37;2.40;;;9.30;91.80;;;;;;10390137;28;20234;-65
2024/03/24 16:09:23;;;;;;;4.73;1.70;;;9.30;91.40;;;;;;10388772;28;20223;-66
2024/03/24 16:14:35;;;;;;;8.37;2.03;;;9.20;91.60;;;;;;10389563;28;20235;-66
2024/03/24 16:19:37;;;;;;;5.70;2.07;;;9.10;91.70;;;;;;10390043;28;20211;-66
2024/03/24 16:24:41;;;;;;;8.47;2.33;;;9.00;91.90;;;;;;10391085;28;20251;-66
2024/03/24 16:29:44;;;;;;;3.83;2.13;;;8.80;92.60;;;;;;10390098;28;20280;-66
2024/03/24 16:34:46;;;;;;;3.77;1.70;;;8.70;92.90;;;;;;10389723;28;20297;-66
2024/03/24 16:39:50;;;;;;;3.07;2.10;;;8.60;93.10;;;;;;10390073;28;20264;-66
2024/03/24 16:44:53;;;;;;;8.50;2.60;;;8.50;93.30;;;;;;10389260;28;20234;-67
2024/03/24 16:49:55;;;;;;;7.30;2.33;;;8.50;93.60;;;;;;10388180;28;20307;-66
2024/03/24 16:55:00;;;;;;;8.40;2.77;;;8.50;93.60;;;;;;10389991;28;20219;-66
2024/03/24 17:00:02;;;;;;;4.53;2.17;;;8.50;93.40;;;;;;10390869;28;20268;-65
2024/03/24 17:05:06;;;;;;;6.87;2.73;;;8.50;93.10;;;;;;10387749;28;20729;-65
2024/03/24 17:10:11;;;;;;;8.63;2.53;;;8.50;93.20;;;;;;10388768;28;20379;-64
2024/03/24 17:15:13;;;;;;;6.93;2.47;;;8.50;93.00;;;;;;10387158;28;20300;-66
2024/03/24 17:20:16;;;;;;;7.80;2.47;;;8.50;92.90;;;;;;10386445;28;21135;-66
2024/03/24 17:25:20;;;;;;;6.53;2.60;;;8.50;93.00;;;;;;10385570;28;20238;-64
2024/03/24 17:30:25;;;;;;;8.53;2.40;;;8.40;93.00;;;;;;10385145;28;20230;-66
2024/03/24 17:35:27;;;;;;;11.30;2.47;;;8.50;92.90;;;;;;10384496;28;20296;-66
2024/03/24 17:40:31;;;;;;;9.57;2.37;;;8.50;93.10;;;;;;10384704;28;21377;-65
2024/03/24 17:45:35;;;;;;;6.60;2.73;;;8.40;93.40;;;;;;10382183;28;20243;-68
2024/03/24 17:50:38;;;;;;;8.83;2.43;;;8.40;93.50;;;;;;10383362;28;20848;-66
2024/03/24 17:55:43;;;;;;;6.93;2.23;;;8.30;93.60;;;;;;10378703;28;20753;-67
2024/03/24 18:00:46;;;;;;;6.87;2.53;;;8.30;93.60;;;;;;10353909;28;21372;-67
2024/03/24 18:05:48;;;;;;;8.70;2.60;;;8.30;93.70;;;;;;10353824;28;20646;-67
2024/03/24 18:10:52;;;;;;;13.13;2.80;;;8.30;93.70;;;;;;10379618;28;20268;-67
2024/03/24 18:15:55;;;;;;;9.10;2.80;;;8.20;93.80;;;;;;10374719;28;20250;-67
2024/03/24 18:20:59;;;;;;;6.43;2.83;;;8.20;93.70;;;;;;10352236;28;20381;-67
2024/03/24 18:26:03;;;;;;;11.07;2.90;;;8.20;93.60;;;;;;10361228;28;20218;-68
2024/03/24 18:31:07;;;;;;;10.37;3.07;;;8.20;93.90;;;;;;10379002;28;20234;-67
2024/03/24 18:36:12;;;;;;;8.27;2.70;;;8.20;94.10;;;;;;10378143;28;20212;-67
2024/03/24 18:41:17;;;;;;;9.33;2.60;;;8.10;94.30;;;;;;10384878;28;20223;-65
2024/03/24 18:46:19;;;;;;;15.47;4.83;;;8.10;94.60;;;;;;10379502;28;20245;-65
2024/03/24 18:51:22;;;;;;;8.17;2.93;;;8.00;94.90;;;;;;10381243;28;20230;-66
2024/03/24 18:56:26;;;;;;;7.77;2.93;;;8.00;94.90;;;;;;10378327;28;20758;-65
2024/03/24 19:01:29;;;;;;;7.60;3.07;;;8.00;95.00;;;;;;10384801;28;20250;-65
2024/03/24 19:06:32;;;;;;;8.47;3.07;;;8.00;94.90;;;;;;10379935;28;20207;-65
2024/03/24 19:11:36;;;;;;;8.73;2.77;;;8.00;95.10;;;;;;10382294;28;20232;-66
2024/03/24 19:16:39;;;;;;;10.13;3.07;;;8.00;95.00;;;;;;10383522;28;20199;-65
2024/03/24 19:21:43;;;;;;;10.53;3.17;;;8.00;95.00;;;;;;10389153;28;20746;-66
2024/03/24 19:26:48;;;;;;;9.00;2.80;;;7.90;94.90;;;;;;10389015;28;20204;-65
2024/03/24 19:31:51;;;;;;;11.37;2.90;;;7.90;95.00;;;;;;10393732;28;20662;-65
2024/03/24 19:36:55;;;;;;;11.73;3.53;;;7.90;95.00;;;;;;10385141;28;20307;-66
2024/03/24 19:41:59;;;;;;;9.30;2.77;;;7.90;95.10;;;;;;10386319;28;20323;-66
2024/03/24 19:47:02;;;;;;;7.60;3.30;;;7.90;94.90;;;;;;10380247;28;21641;-66
2024/03/24 19:52:05;;;;;;;9.27;3.22;;;7.80;95.20;;;;;;10388254;28;20261;-66
2024/03/24 19:57:09;;;;;;;8.38;2.97;;;7.80;94.90;;;;;;10384556;28;20439;-62
2024/03/24 20:02:11;;;;;;;10.13;3.30;;;7.80;94.90;;;;;;10383500;28;20227;-64
2024/03/24 20:07:14;;;;;;;8.87;3.27;;;7.90;94.90;;;;;;10387383;28;20207;-64
2024/03/24 20:12:18;;;;;;;12.27;3.27;;;7.80;94.80;;;;;;10385297;28;20239;-65
2024/03/24 20:17:21;;;;;;;12.43;3.50;;;7.80;94.70;;;;;;10389645;28;20268;-67
2024/03/24 20:22:23;;;;;;;10.10;3.80;;;7.80;94.70;;;;;;10383201;28;20786;-67
2024/03/24 20:27:28;;;;;;;14.10;3.30;;;7.90;94.70;;;;;;10384762;28;20200;-68
2024/03/24 20:32:31;;;;;;;15.13;3.47;;;7.80;94.60;;;;;;10383727;28;21413;-65
2024/03/24 20:37:33;;;;;;;13.97;4.50;;;7.80;94.60;;;;;;10382045;28;20241;-67
2024/03/24 20:42:38;;;;;;;16.53;3.97;;;7.80;94.60;;;;;;10386451;28;20595;-64
2024/03/24 20:47:40;;;;;;;14.43;4.40;;;7.80;94.90;;;;;;10385531;28;20214;-66
2024/03/24 20:52:43;;;;;;;13.53;4.00;;;7.90;94.80;;;;;;10386870;28;21562;-64
2024/03/24 20:57:47;;;;;;;13.27;5.03;;;7.90;94.90;;;;;;10386208;28;20203;-64
2024/03/24 21:02:50;;;;;;;16.17;4.60;;;7.90;94.80;;;;;;10384156;28;20218;-66
2024/03/24 21:07:53;;;;;;;17.03;5.20;;;7.90;95.00;;;;;;10384671;28;21796;-65
2024/03/24 21:12:57;;;;;;;16.10;4.73;;;7.80;95.00;;;;;;10385485;28;20235;-66
2024/03/24 21:18:01;;;;;;;16.97;5.53;;;7.90;95.20;;;;;;10382367;28;20283;-65
2024/03/24 21:23:04;;;;;;;20.27;5.53;;;7.90;95.00;;;;;;10385117;28;20256;-63
2024/03/24 21:28:08;;;;;;;16.63;4.73;;;7.80;94.70;;;;;;10384213;28;20215;-64
2024/03/24 21:33:11;;;;;;;18.43;4.73;;;7.80;94.70;;;;;;10383381;28;20273;-65
2024/03/24 21:43:35;;;;;;;14.60;4.77;;;7.80;94.50;;;;;;10383850;28;20222;-66
2024/03/24 21:48:37;;;;;;;17.80;4.47;;;7.80;94.50;;;;;;10383955;28;20211;-65
2024/03/24 21:53:41;;;;;;;16.57;4.33;;;7.80;94.90;;;;;;10383728;28;21066;-64
2024/03/24 21:58:45;;;;;;;18.47;5.53;;;7.80;94.50;;;;;;10384754;28;20203;-66
2024/03/24 22:03:48;;;;;;;15.90;4.90;;;7.80;94.50;;;;;;10383640;28;20223;-64
2024/03/24 22:08:50;;;;;;;17.83;5.57;;;7.80;94.40;;;;;;10382703;28;20269;-67
2024/03/24 22:13:54;;;;;;;20.33;4.93;;;7.80;94.30;;;;;;10383204;28;20310;-67
2024/03/24 22:18:57;;;;;;;22.07;4.73;;;7.70;94.20;;;;;;10384872;28;20280;-66
2024/03/24 22:24:00;;;;;;;15.77;4.13;;;7.70;94.20;;;;;;10382031;28;20223;-67
2024/03/24 22:29:05;;;;;;;14.77;3.70;;;7.70;94.20;;;;;;10380751;28;20287;-65
2024/03/24 22:34:07;;;;;;;21.37;4.97;;;7.70;94.10;;;;;;10379314;28;20644;-68
2024/03/24 22:39:10;;;;;;;16.30;4.97;;;7.70;94.10;;;;;;10382466;28;20198;-67
2024/03/24 22:44:14;;;;;;;16.00;4.70;;;7.70;94.20;;;;;;10380595;28;21649;-66
2024/03/24 22:49:17;;;;;;;15.13;4.37;;;7.70;94.20;;;;;;10377767;28;21556;-66
2024/03/24 22:54:19;;;;;;;15.63;3.93;;;7.60;94.10;;;;;;10380629;28;20235;-65
2024/03/24 22:59:23;;;;;;;21.33;4.43;;;7.60;94.10;;;;;;10382476;28;21467;-63
2024/03/24 23:04:26;;;;;;;16.33;5.00;;;7.60;94.20;;;;;;10390597;28;21689;-63
2024/03/24 23:09:28;;;;;;;16.53;4.47;;;7.60;94.20;;;;;;10387564;28;20268;-65
2024/03/24 23:14:33;;;;;;;14.97;4.20;;;7.50;94.10;;;;;;10386894;28;20252;-66
2024/03/24 23:19:36;;;;;;;17.73;4.37;;;7.50;94.40;;;;;;10386922;28;20208;-65
2024/03/24 23:24:38;;;;;;;18.00;4.57;;;7.60;94.10;;;;;;10385848;28;20242;-65
2024/03/24 23:29:43;;;;;;;13.07;3.60;;;7.60;94.00;;;;;;10386979;28;20219;-63
2024/03/24 23:34:45;;;;;;;21.20;4.40;;;7.60;94.10;;;;;;10387776;28;20269;-65
2024/03/24 23:39:48;;;;;;;16.93;4.00;;;7.50;93.90;;;;;;10386022;28;22015;-63
2024/03/24 23:44:52;;;;;;;13.33;3.30;;;7.50;93.80;;;;;;10385730;28;20252;-65
2024/03/24 23:49:54;;;;;;;15.37;3.87;;;7.50;93.80;;;;;;10386801;28;20214;-64
2024/03/24 23:54:57;;;;;;;15.50;3.90;;;7.50;93.90;;;;;;10386569;28;20328;-63
